Time;durP1;ratioP1;P1;durP2;ratioP2;P2;SDS_P1;SDS_P2;PMS_P1;PMS_P2;Temp;Humidity;BMP_temperature;BMP_pressure;BME280_temperature;BME280_humidity;BME280_pressure;Samples;Min_cycle;Max_cycle;Signal;HPM_P1;HPM_P2
2024/01/13 00:18:01;;;;;;;6.07;4.80;;;;;;;20.13;47.11;100985.38;41386881;28;20041;-73
2024/01/13 00:38:02;;;;;;;6.72;4.18;;;;;;;20.11;46.98;100996.94;41385052;28;20560;-74
2024/01/13 00:58:02;;;;;;;4.60;4.07;;;;;;;20.09;46.95;100991.78;41392572;28;20038;-72
2024/01/13 01:18:04;;;;;;;4.82;4.22;;;;;;;20.10;46.65;100984.72;41230630;28;20083;-73
2024/01/13 01:38:05;;;;;;;4.40;3.60;;;;;;;20.09;47.01;100947.09;41230415;28;20050;-75
2024/01/13 01:58:05;;;;;;;4.07;3.47;;;;;;;20.10;46.83;100898.84;41370406;28;20050;-74
2024/01/13 02:18:11;;;;;;;4.43;3.63;;;;;;;20.08;46.80;100870.94;41329869;28;20065;-75
2024/01/13 02:38:12;;;;;;;3.90;3.50;;;;;;;20.09;46.37;100868.22;41393877;28;20091;-73
2024/01/13 02:58:13;;;;;;;4.07;3.55;;;;;;;20.11;46.33;100868.94;41412957;28;20504;-75
2024/01/13 03:18:14;;;;;;;3.50;3.20;;;;;;;20.14;46.23;100833.72;41416147;28;20050;-75
2024/01/13 03:38:15;;;;;;;3.25;2.95;;;;;;;20.12;45.86;100820.69;41431006;28;20056;-74
2024/01/13 03:58:16;;;;;;;3.70;3.30;;;;;;;20.10;45.57;100800.69;41424077;28;20050;-76
2024/01/13 04:18:16;;;;;;;2.97;2.78;;;;;;;20.14;45.61;100804.78;41404685;28;20045;-73
2024/01/13 04:38:24;;;;;;;3.47;3.17;;;;;;;20.12;45.62;100819.84;41398263;28;20077;-75
2024/01/13 04:58:24;;;;;;;3.50;3.10;;;;;;;20.18;45.64;100800.19;41397413;28;20408;-75
2024/01/13 05:18:29;;;;;;;3.58;3.15;;;;;;;20.53;44.57;100791.72;41389464;28;20133;-73
2024/01/13 05:38:29;;;;;;;3.70;3.30;;;;;;;20.75;44.51;100791.97;41339650;28;20049;-76
2024/01/13 05:58:30;;;;;;;5.40;3.13;;;;;;;20.86;44.20;100795.63;41389050;28;20041;-79
2024/01/13 06:18:30;;;;;;;4.60;2.75;;;;;;;20.91;44.02;100797.00;41400715;28;20066;-79
2024/01/13 06:38:31;;;;;;;3.65;3.10;;;;;;;21.01;43.71;100796.38;41391672;28;21166;-80
2024/01/13 06:58:32;;;;;;;5.75;4.45;;;;;;;21.15;43.96;100798.84;41449873;28;20046;-77
2024/01/13 07:18:34;;;;;;;8.07;6.30;;;;;;;21.21;43.75;100793.13;41407972;28;20045;-77
2024/01/13 07:38:34;;;;;;;8.45;7.13;;;;;;;21.35;43.37;100786.03;41372220;28;20057;-76
2024/01/13 07:58:35;;;;;;;10.45;8.10;;;;;;;21.47;44.97;100755.34;41392945;28;20401;-73
2024/01/13 08:18:36;;;;;;;13.63;9.32;;;;;;;21.65;45.74;100750.56;41358792;28;20042;-76
2024/01/13 08:38:37;;;;;;;13.25;8.80;;;;;;;21.57;46.05;100769.56;41365460;28;20046;-70
2024/01/13 08:58:38;;;;;;;33.33;12.52;;;;;;;19.65;35.12;100782.53;41380327;28;20073;-74
2024/01/13 09:18:38;;;;;;;20.67;9.15;;;;;;;20.64;38.37;100741.81;41369847;28;20056;-81
2024/01/13 09:38:39;;;;;;;34.92;25.05;;;;;;;21.48;40.58;100752.59;41361945;28;20048;-71
2024/01/13 09:58:39;;;;;;;30.80;24.17;;;;;;;21.38;41.59;100735.78;41376229;28;20146;-70
2024/01/13 10:18:40;;;;;;;24.92;20.73;;;;;;;21.39;41.86;100721.66;41377049;28;20520;-71
2024/01/13 10:38:42;;;;;;;26.27;19.45;;;;;;;21.29;41.38;100703.06;41384154;28;20156;-69
2024/01/13 10:58:46;;;;;;;23.52;18.10;;;;;;;21.39;41.56;100674.25;41368572;28;20132;-70
2024/01/13 11:18:52;;;;;;;24.42;16.58;;;;;;;21.49;41.75;100640.97;41369783;28;20053;-69
2024/01/13 11:38:55;;;;;;;20.23;15.50;;;;;;;21.41;41.07;100622.25;41392246;28;20120;-70
2024/01/13 11:58:56;;;;;;;18.52;14.30;;;;;;;21.39;41.21;100596.03;41382908;28;20050;-70
2024/01/13 12:18:56;;;;;;;19.42;14.10;;;;;;;21.57;41.68;100558.78;41391275;28;20038;-69
2024/01/13 12:38:57;;;;;;;21.80;14.93;;;;;;;21.62;41.38;100547.84;41389331;28;20041;-69
2024/01/13 12:58:57;;;;;;;22.05;16.33;;;;;;;21.48;41.63;100560.25;41387050;28;20520;-70
2024/01/13 13:18:58;;;;;;;21.83;16.17;;;;;;;21.44;41.76;100556.19;41375576;28;20058;-70
2024/01/13 13:38:58;;;;;;;21.00;14.70;;;;;;;21.56;41.47;100538.63;41374824;28;20053;-70
2024/01/13 13:58:58;;;;;;;20.95;14.52;;;;;;;21.70;41.21;100501.53;41328257;28;20058;-75
2024/01/13 14:18:59;;;;;;;19.05;13.75;;;;;;;21.70;41.06;100482.22;41329185;28;20046;-75
2024/01/13 14:39:00;;;;;;;18.05;12.15;;;;;;;21.55;41.96;100463.16;41366418;28;20046;-74
2024/01/13 14:59:01;;;;;;;14.23;10.90;;;;;;;21.49;42.87;100443.38;41432366;28;20124;-77
2024/01/13 15:19:02;;;;;;;13.07;9.13;;;;;;;21.28;43.24;100432.72;41389123;28;20481;-76
2024/01/13 15:39:03;;;;;;;12.27;8.70;;;;;;;21.13;43.89;100418.97;41338607;28;20842;-76
2024/01/13 15:59:03;;;;;;;9.25;7.40;;;;;;;21.00;44.09;100394.53;41387885;28;20066;-75
2024/01/13 16:19:03;;;;;;;8.50;6.95;;;;;;;20.94;44.19;100393.19;41412637;28;20034;-77
2024/01/13 16:39:05;;;;;;;8.73;6.75;;;;;;;20.85;44.37;100413.16;41393222;28;20042;-76
2024/01/13 16:59:05;;;;;;;526.08;140.90;;;;;;;20.63;35.35;100379.69;41388910;28;20141;-72
2024/01/13 17:19:06;;;;;;;323.40;89.30;;;;;;;20.60;40.91;100350.97;41372583;28;20105;-73
2024/01/13 17:39:06;;;;;;;269.15;82.65;;;;;;;20.66;44.44;100352.31;41348167;28;20511;-73
2024/01/13 17:59:06;;;;;;;202.20;70.22;;;;;;;20.80;47.66;100333.72;41374284;28;20184;-73
2024/01/13 18:19:07;;;;;;;183.57;68.47;;;;;;;20.97;49.36;100337.69;41273393;28;20051;-76
2024/01/13 18:39:08;;;;;;;156.45;59.17;;;;;;;20.94;48.88;100293.16;41336173;28;20129;-73
2024/01/13 18:59:08;;;;;;;123.55;51.55;;;;;;;21.03;47.33;100265.28;41364593;28;20514;-75
2024/01/13 19:19:10;;;;;;;105.68;45.47;;;;;;;20.96;47.24;100246.50;41388741;28;20069;-74
2024/01/13 19:39:11;;;;;;;83.40;38.83;;;;;;;20.93;48.00;100241.47;41384485;28;20103;-75
2024/01/13 19:59:12;;;;;;;78.80;34.85;;;;;;;20.86;48.02;100245.53;41409548;28;20073;-75
2024/01/13 20:19:12;;;;;;;72.20;32.17;;;;;;;20.95;47.92;100194.81;41221457;28;20092;-72
2024/01/13 20:39:13;;;;;;;61.40;29.00;;;;;;;20.83;48.55;100201.88;41371320;28;20098;-72
2024/01/13 20:59:14;;;;;;;51.83;26.13;;;;;;;20.80;48.28;100183.72;41276055;28;20137;-73
2024/01/13 21:19:14;;;;;;;45.30;23.20;;;;;;;20.78;48.08;100160.13;41285851;28;20038;-79
2024/01/13 21:39:15;;;;;;;42.60;21.70;;;;;;;20.67;48.35;100143.53;41436411;28;20030;-83
2024/01/13 21:59:17;;;;;;;36.65;20.27;;;;;;;20.64;48.03;100137.53;41351324;28;20033;-79
2024/01/13 22:19:19;;;;;;;32.03;18.08;;;;;;;20.49;48.13;100112.44;41341603;28;20046;-77
2024/01/13 22:39:19;;;;;;;29.90;16.88;;;;;;;20.39;47.95;100098.34;41363103;28;20038;-79
2024/01/13 22:59:20;;;;;;;29.63;15.23;;;;;;;20.09;48.16;100079.59;41397482;28;20051;-72
2024/01/13 23:19:20;;;;;;;21.83;13.75;;;;;;;19.98;48.28;100055.91;41323953;28;20523;-73
2024/01/13 23:39:21;;;;;;;21.33;12.93;;;;;;;19.95;48.13;100022.84;41378243;28;20128;-72
2024/01/13 23:59:23;;;;;;;22.00;13.70;;;;;;;20.05;47.74;100001.09;41256470;28;20042;-72
